Time;durP1;ratioP1;P1;durP2;ratioP2;P2;SDS_P1;SDS_P2;PMS_P1;PMS_P2;Temp;Humidity;BMP_temperature;BMP_pressure;BME280_temperature;BME280_humidity;BME280_pressure;Samples;Min_cycle;Max_cycle;Signal;HPM_P1;HPM_P2
2023/04/03 00:00:59;;;;;;;4.38;3.30;;;;;;;3.85;100.00;102859.53;5277357;28;20052;-70
2023/04/03 00:03:30;;;;;;;6.10;3.42;;;;;;;3.85;100.00;102869.06;5279190;28;20123;-70
2023/04/03 00:06:03;;;;;;;6.00;3.47;;;;;;;3.90;100.00;102875.84;5283909;28;20020;-70
2023/04/03 00:08:35;;;;;;;7.35;4.43;;;;;;;3.86;100.00;102871.63;5281256;28;20032;-70
2023/04/03 00:11:07;;;;;;;5.35;4.15;;;;;;;3.79;100.00;102870.06;5276569;28;20443;-70
2023/04/03 00:13:39;;;;;;;6.18;4.40;;;;;;;3.83;100.00;102878.63;5275573;28;20020;-70
2023/04/03 00:16:12;;;;;;;5.85;3.95;;;;;;;3.81;100.00;102877.78;5280130;28;20028;-70
2023/04/03 00:18:43;;;;;;;5.03;3.95;;;;;;;3.75;100.00;102872.75;5277562;28;20036;-70
2023/04/03 00:21:15;;;;;;;8.38;4.28;;;;;;;3.70;100.00;102877.19;5274645;28;20480;-70
2023/04/03 00:23:46;;;;;;;3.80;3.40;;;;;;;3.71;100.00;102884.91;5279265;28;20028;-70
2023/04/03 00:26:18;;;;;;;6.97;3.75;;;;;;;3.76;100.00;102888.28;5261568;28;20022;-70
2023/04/03 00:28:49;;;;;;;4.70;3.70;;;;;;;3.68;100.00;102891.94;5274687;28;20028;-70
2023/04/03 00:31:20;;;;;;;5.85;4.20;;;;;;;3.67;100.00;102893.66;5279739;28;20403;-70
2023/04/03 00:33:51;;;;;;;5.65;3.67;;;;;;;3.66;100.00;102890.22;5278699;28;20070;-70
2023/04/03 00:36:23;;;;;;;5.00;3.80;;;;;;;3.65;100.00;102895.44;5280984;28;20260;-70
2023/04/03 00:38:54;;;;;;;5.15;3.80;;;;;;;3.60;100.00;102902.50;5274106;28;20024;-70
2023/04/03 00:41:25;;;;;;;4.57;3.80;;;;;;;3.55;100.00;102893.94;5280612;28;20084;-70
2023/04/03 00:43:57;;;;;;;5.68;3.40;;;;;;;3.49;100.00;102888.91;5282733;28;20028;-70
2023/04/03 00:46:28;;;;;;;4.40;3.17;;;;;;;3.49;100.00;102894.94;5271430;28;20036;-70
2023/04/03 00:49:00;;;;;;;4.28;3.05;;;;;;;3.46;100.00;102888.97;5280349;28;20438;-70
2023/04/03 00:51:31;;;;;;;4.38;3.08;;;;;;;3.42;100.00;102898.56;5280321;28;20041;-69
2023/04/03 00:54:06;;;;;;;6.93;3.10;;;;;;;3.46;100.00;102895.00;5275015;28;20072;-70
2023/04/03 00:56:38;;;;;;;4.32;2.58;;;;;;;3.24;100.00;102897.22;5276678;28;20071;-69
2023/04/03 00:59:25;;;;;;;4.53;2.97;;;;;;;3.56;100.00;102895.63;5279306;28;20107;-70
2023/04/03 01:01:58;;;;;;;4.05;2.85;;;;;;;3.36;100.00;102902.13;5285036;28;20127;-70
2023/04/03 01:04:39;;;;;;;4.88;2.85;;;;;;;3.35;100.00;102897.84;5278966;28;20017;-70
2023/04/03 01:07:15;;;;;;;5.20;2.63;;;;;;;3.34;100.00;102903.06;5282506;28;20028;-70
2023/04/03 01:09:50;;;;;;;3.92;2.88;;;;;;;3.28;100.00;102893.66;5277707;28;20034;-70
2023/04/03 01:12:31;;;;;;;4.93;2.78;;;;;;;3.39;100.00;102906.38;5263057;28;20031;-70
2023/04/03 01:15:07;;;;;;;6.88;3.22;;;;;;;3.16;100.00;102896.53;5286112;28;20039;-70
2023/04/03 01:17:45;;;;;;;5.03;2.80;;;;;;;3.22;100.00;102901.59;5283189;28;20448;-70
2023/04/03 01:20:31;;;;;;;3.72;2.58;;;;;;;3.41;100.00;102902.88;5281399;28;20028;-70
2023/04/03 01:23:08;;;;;;;6.05;3.28;;;;;;;3.27;100.00;102904.06;5280099;28;20034;-69
2023/04/03 01:25:50;;;;;;;4.95;2.85;;;;;;;3.10;100.00;102904.41;5282132;28;20031;-70
2023/04/03 01:28:32;;;;;;;4.30;2.95;;;;;;;3.11;100.00;102899.22;5277451;28;20016;-70
2023/04/03 01:31:13;;;;;;;3.67;2.92;;;;;;;3.14;100.00;102885.31;5279648;28;20119;-70
2023/04/03 01:33:44;;;;;;;4.63;3.40;;;;;;;3.06;100.00;102902.75;5286236;28;20028;-70
2023/04/03 01:36:22;;;;;;;5.68;3.35;;;;;;;3.25;100.00;102903.22;5283183;28;20028;-70
2023/04/03 01:38:55;;;;;;;6.18;3.67;;;;;;;3.02;100.00;102894.19;5280519;28;20032;-70
2023/04/03 01:41:27;;;;;;;5.05;3.13;;;;;;;3.00;100.00;102901.16;5280322;28;20493;-71
2023/04/03 01:43:58;;;;;;;5.70;3.47;;;;;;;3.11;100.00;102909.56;5283200;28;20111;-70
2023/04/03 01:46:30;;;;;;;5.43;3.80;;;;;;;3.09;100.00;102908.72;5281159;28;20036;-69
2023/04/03 01:49:01;;;;;;;5.00;4.05;;;;;;;3.04;100.00;102907.97;5278573;28;20036;-70
2023/04/03 01:51:33;;;;;;;8.23;3.95;;;;;;;3.07;100.00;102902.75;5279262;28;20508;-69
2023/04/03 01:54:04;;;;;;;5.57;3.78;;;;;;;3.15;100.00;102906.03;5283374;28;20412;-69
2023/04/03 01:56:36;;;;;;;7.18;4.38;;;;;;;3.11;100.00;102903.53;5280870;28;20059;-69
2023/04/03 01:59:07;;;;;;;4.10;3.38;;;;;;;3.08;100.00;102901.84;5288478;28;20028;-69
2023/04/03 02:01:39;;;;;;;7.45;4.20;;;;;;;3.07;100.00;102904.47;5286846;28;20136;-69
2023/04/03 02:04:11;;;;;;;5.75;4.00;;;;;;;3.14;100.00;102901.75;5283721;28;20016;-69
2023/04/03 02:06:43;;;;;;;7.80;4.00;;;;;;;3.15;100.00;102912.94;5280347;28;20047;-69
2023/04/03 02:09:14;;;;;;;6.10;4.35;;;;;;;3.15;100.00;102911.22;5282074;28;20497;-69
2023/04/03 02:11:45;;;;;;;4.95;4.18;;;;;;;3.16;100.00;102906.88;5279466;28;20524;-69
2023/04/03 02:14:17;;;;;;;9.00;5.07;;;;;;;3.21;100.00;102910.22;5281571;28;20071;-70
2023/04/03 02:16:48;;;;;;;7.05;5.10;;;;;;;3.14;100.00;102904.34;5282095;28;20074;-69
2023/04/03 02:19:19;;;;;;;5.53;4.05;;;;;;;3.24;100.00;102902.38;5278709;28;20070;-69
2023/04/03 02:21:50;;;;;;;6.28;4.80;;;;;;;3.29;100.00;102904.88;5276844;28;20028;-69
2023/04/03 02:24:22;;;;;;;8.13;4.28;;;;;;;3.27;100.00;102899.75;5282340;28;20511;-69
2023/04/03 02:26:53;;;;;;;5.95;4.38;;;;;;;3.34;100.00;102903.91;5280388;28;20397;-69
2023/04/03 02:29:25;;;;;;;6.65;4.40;;;;;;;3.40;100.00;102910.69;5281297;28;20570;-69
2023/04/03 02:31:56;;;;;;;11.45;4.88;;;;;;;3.35;100.00;102907.34;5280174;28;20393;-69
2023/04/03 02:34:27;;;;;;;7.30;4.85;;;;;;;3.32;100.00;102913.44;5281820;28;20474;-69
2023/04/03 02:36:59;;;;;;;5.70;4.15;;;;;;;3.35;100.00;102920.28;5283515;28;20039;-69
2023/04/03 02:39:30;;;;;;;11.52;4.63;;;;;;;3.28;100.00;102921.31;5282777;28;20028;-69
2023/04/03 02:42:01;;;;;;;8.35;4.90;;;;;;;3.33;100.00;102916.88;5279811;28;20381;-69
2023/04/03 02:44:32;;;;;;;5.57;4.13;;;;;;;3.42;100.00;102924.47;5279776;28;20062;-69
2023/04/03 02:47:05;;;;;;;6.65;4.13;;;;;;;3.30;100.00;102935.09;5282585;28;20098;-69
2023/04/03 02:49:36;;;;;;;6.47;4.50;;;;;;;3.37;100.00;102931.47;5278863;28;20093;-69
2023/04/03 02:52:07;;;;;;;7.40;4.18;;;;;;;3.38;100.00;102933.19;5276413;28;20036;-69
2023/04/03 02:54:39;;;;;;;5.25;4.03;;;;;;;3.34;100.00;102921.19;5278287;28;20037;-69
2023/04/03 02:57:10;;;;;;;6.43;4.30;;;;;;;3.33;100.00;102933.31;5279906;28;20254;-69
2023/04/03 02:59:41;;;;;;;8.43;4.30;;;;;;;3.31;100.00;102936.78;5277312;28;20031;-69
2023/04/03 03:02:13;;;;;;;5.97;4.20;;;;;;;3.37;100.00;102941.81;5282686;28;20036;-69
2023/04/03 03:04:44;;;;;;;4.80;4.20;;;;;;;3.32;100.00;102931.56;5286061;28;20396;-69
2023/04/03 03:07:15;;;;;;;6.45;4.10;;;;;;;3.35;100.00;102931.50;5279425;28;20098;-69
2023/04/03 03:09:46;;;;;;;6.45;3.88;;;;;;;3.32;100.00;102930.72;5279067;28;20036;-69
2023/04/03 03:12:21;;;;;;;5.97;4.90;;;;;;;3.31;100.00;102934.19;5280551;28;20077;-69
2023/04/03 03:14:52;;;;;;;5.75;3.55;;;;;;;3.29;100.00;102925.59;5279066;28;20117;-69
2023/04/03 03:17:24;;;;;;;6.22;3.92;;;;;;;3.33;100.00;102935.00;5276401;28;20533;-69
2023/04/03 03:19:55;;;;;;;5.95;4.10;;;;;;;3.35;100.00;102922.88;5280256;28;20169;-69
2023/04/03 03:22:28;;;;;;;7.38;3.97;;;;;;;3.38;100.00;102928.00;5280019;28;20186;-69
2023/04/03 03:25:00;;;;;;;5.38;3.78;;;;;;;3.29;100.00;102930.78;5283745;28;20151;-69
2023/04/03 03:27:31;;;;;;;5.97;3.80;;;;;;;3.09;100.00;102921.69;5278244;28;20035;-69
2023/04/03 03:30:04;;;;;;;5.97;3.83;;;;;;;3.21;100.00;102930.09;5277882;28;20096;-69
2023/04/03 03:32:35;;;;;;;9.73;4.47;;;;;;;3.15;100.00;102934.53;5281109;28;20114;-69
2023/04/03 03:35:07;;;;;;;5.32;3.83;;;;;;;3.19;100.00;102934.47;5278123;28;20297;-69
2023/04/03 03:37:38;;;;;;;7.05;3.60;;;;;;;3.16;100.00;102933.63;5279713;28;20192;-69
2023/04/03 03:40:11;;;;;;;6.43;3.47;;;;;;;3.26;100.00;102946.38;5280957;28;20572;-69
2023/04/03 03:42:43;;;;;;;6.20;3.55;;;;;;;3.17;100.00;102942.25;5283601;28;20035;-69
2023/04/03 03:45:14;;;;;;;6.57;3.50;;;;;;;3.08;100.00;102930.34;5279579;28;20223;-69
2023/04/03 03:47:45;;;;;;;6.45;3.38;;;;;;;3.17;100.00;102950.88;5278188;28;20485;-69
2023/04/03 03:50:17;;;;;;;4.68;3.20;;;;;;;3.17;100.00;102952.59;5275518;28;20467;-69
2023/04/03 03:52:48;;;;;;;8.00;3.00;;;;;;;3.16;100.00;102953.50;5276995;28;20043;-69
2023/04/03 03:55:20;;;;;;;4.88;3.08;;;;;;;3.11;100.00;102948.41;5280489;28;20026;-69
2023/04/03 03:57:51;;;;;;;5.80;3.35;;;;;;;3.12;100.00;102951.84;5283404;28;20028;-69
2023/04/03 04:00:22;;;;;;;5.97;2.90;;;;;;;3.13;100.00;102956.13;5279151;28;20020;-69
2023/04/03 04:02:54;;;;;;;10.38;3.22;;;;;;;3.08;100.00;102952.81;5280583;28;20985;-69
2023/04/03 04:05:25;;;;;;;4.97;3.42;;;;;;;2.98;100.00;102941.75;5280082;28;20073;-69
2023/04/03 04:07:57;;;;;;;5.28;2.90;;;;;;;3.05;100.00;102958.88;5278949;28;20052;-69
2023/04/03 04:10:28;;;;;;;5.30;2.78;;;;;;;3.06;100.00;102958.00;5281725;28;20024;-69
2023/04/03 04:12:59;;;;;;;6.43;2.88;;;;;;;3.14;100.00;102956.13;5276337;28;20027;-69
2023/04/03 04:15:31;;;;;;;4.75;3.15;;;;;;;3.17;100.00;102953.47;5281162;28;20485;-69
2023/04/03 04:18:02;;;;;;;5.93;2.90;;;;;;;3.14;100.00;102956.13;5281493;28;20898;-69
2023/04/03 04:20:33;;;;;;;6.90;3.20;;;;;;;3.13;100.00;102958.72;5272327;28;20029;-69
2023/04/03 04:23:05;;;;;;;6.47;3.08;;;;;;;3.12;100.00;102962.22;5280677;28;20036;-69
2023/04/03 04:25:36;;;;;;;6.40;2.70;;;;;;;3.10;100.00;102958.78;5253201;28;20531;-69
2023/04/03 04:28:07;;;;;;;6.93;3.15;;;;;;;3.09;100.00;102957.94;5281051;28;20020;-69
2023/04/03 04:30:39;;;;;;;4.97;3.10;;;;;;;3.06;100.00;102952.81;5278741;28;20047;-68
2023/04/03 04:33:10;;;;;;;4.75;2.53;;;;;;;3.05;100.00;102951.13;5283213;28;20441;-69
2023/04/03 04:35:43;;;;;;;4.35;2.58;;;;;;;3.12;100.00;102954.44;5264650;28;20432;-69
2023/04/03 04:38:14;;;;;;;4.25;2.67;;;;;;;3.01;100.00;102957.25;5281317;28;20361;-69
2023/04/03 04:40:47;;;;;;;6.78;2.70;;;;;;;3.00;100.00;102950.34;5282754;28;20028;-69
2023/04/03 04:43:19;;;;;;;7.68;2.95;;;;;;;3.00;100.00;102958.13;5282815;28;20046;-69
2023/04/03 04:46:00;;;;;;;4.95;2.42;;;;;;;3.12;100.00;102963.06;5282833;28;20024;-69
2023/04/03 04:48:32;;;;;;;5.05;2.50;;;;;;;2.98;100.00;102964.22;5287725;28;20493;-68
2023/04/03 04:51:03;;;;;;;3.83;2.42;;;;;;;2.93;100.00;102966.91;5279932;28;20032;-67
2023/04/03 04:53:35;;;;;;;4.07;2.47;;;;;;;2.89;100.00;102975.59;5285006;28;20032;-69
2023/04/03 04:56:06;;;;;;;8.85;2.55;;;;;;;2.80;100.00;102966.25;5282920;28;20028;-69
2023/04/03 04:58:38;;;;;;;5.10;2.53;;;;;;;2.87;100.00;102977.34;5282581;28;20039;-68
2023/04/03 05:01:10;;;;;;;3.80;2.25;;;;;;;2.89;100.00;102980.78;5284135;28;20051;-69
2023/04/03 05:03:42;;;;;;;6.72;2.50;;;;;;;2.88;100.00;102986.84;5281337;28;20341;-69
2023/04/03 05:06:13;;;;;;;3.80;2.15;;;;;;;2.95;100.00;102987.56;5278394;28;20105;-69
2023/04/03 05:08:44;;;;;;;5.00;2.30;;;;;;;2.90;100.00;102982.47;5281433;28;20032;-69
2023/04/03 05:11:16;;;;;;;8.95;2.17;;;;;;;2.84;100.00;102987.75;5278902;28;20024;-68
2023/04/03 05:13:47;;;;;;;4.72;2.17;;;;;;;2.89;100.00;102981.63;5263631;28;20082;-69
2023/04/03 05:16:18;;;;;;;6.53;2.10;;;;;;;2.83;100.00;102981.72;5280991;28;20120;-69
2023/04/03 05:18:49;;;;;;;4.60;2.10;;;;;;;2.81;100.00;102987.84;5276008;28;20036;-69
2023/04/03 05:21:23;;;;;;;6.25;2.63;;;;;;;2.89;100.00;102988.53;5283114;28;20023;-69
2023/04/03 05:23:54;;;;;;;;;;;;;;;3.38;100.00;102987.59;5278583;28;20118;-68
2023/04/03 05:26:26;;;;;;;4.33;2.43;;;;;;;2.97;100.00;102991.84;5279939;28;20797;-69
2023/04/03 05:28:57;;;;;;;8.40;2.13;;;;;;;2.85;100.00;102989.47;5273768;28;20028;-69
2023/04/03 05:31:29;;;;;;;7.40;2.53;;;;;;;2.91;100.00;102990.19;5281023;28;20759;-69
2023/04/03 05:34:01;;;;;;;4.82;2.20;;;;;;;2.90;100.00;102998.84;5280334;28;20024;-68
2023/04/03 05:36:32;;;;;;;4.18;2.08;;;;;;;2.95;100.00;103003.94;5283682;28;20120;-69
2023/04/03 05:39:03;;;;;;;6.88;2.63;;;;;;;2.89;100.00;103004.94;5284964;28;20082;-69
2023/04/03 05:41:35;;;;;;;3.92;2.00;;;;;;;2.95;100.00;102996.19;5278335;28;20031;-69
2023/04/03 05:44:06;;;;;;;4.32;2.20;;;;;;;2.93;100.00;102997.97;5264854;28;20043;-69
2023/04/03 05:46:37;;;;;;;4.05;1.73;;;;;;;2.95;100.00;103000.50;5276610;28;20136;-69
2023/04/03 05:49:09;;;;;;;3.92;2.08;;;;;;;2.94;100.00;103010.03;5274267;28;20351;-69
2023/04/03 05:51:40;;;;;;;3.70;1.90;;;;;;;2.90;100.00;103004.03;5276402;28;20029;-69
2023/04/03 05:54:17;;;;;;;4.30;2.40;;;;;;;2.99;100.00;103008.19;5277299;28;20535;-69
2023/04/03 05:56:52;;;;;;;4.38;2.28;;;;;;;3.05;100.00;103009.81;5283114;28;20021;-69
2023/04/03 05:59:23;;;;;;;4.20;2.15;;;;;;;3.04;100.00;103013.31;5279941;28;20020;-69
2023/04/03 06:01:54;;;;;;;4.28;1.95;;;;;;;3.05;100.00;103007.22;5283873;28;20066;-68
2023/04/03 06:04:25;;;;;;;5.80;2.30;;;;;;;3.08;100.00;103010.63;5282778;28;20101;-69
2023/04/03 06:06:57;;;;;;;4.82;2.00;;;;;;;3.14;100.00;103014.81;5277948;28;20020;-69
2023/04/03 06:09:30;;;;;;;5.03;1.90;;;;;;;3.09;100.00;103012.31;5280380;28;20025;-69
2023/04/03 06:12:01;;;;;;;5.43;2.00;;;;;;;3.12;100.00;103014.84;5281570;28;20037;-68
2023/04/03 06:14:33;;;;;;;5.43;2.13;;;;;;;3.12;100.00;103017.44;5276990;28;20028;-69
2023/04/03 06:17:04;;;;;;;5.15;2.15;;;;;;;3.14;100.00;103020.00;5281083;28;20462;-69
2023/04/03 06:19:36;;;;;;;6.13;2.08;;;;;;;3.17;100.00;103015.63;5282347;28;20032;-67
2023/04/03 06:22:07;;;;;;;5.00;2.47;;;;;;;3.25;100.00;103025.84;5275117;28;20056;-69
2023/04/03 06:24:39;;;;;;;5.70;2.38;;;;;;;3.29;100.00;103032.66;5277646;28;20032;-69
2023/04/03 06:27:11;;;;;;;6.43;1.95;;;;;;;3.31;100.00;103035.25;5267660;28;20130;-69
2023/04/03 06:29:44;;;;;;;5.95;2.13;;;;;;;3.32;100.00;103023.97;5276591;28;20036;-69
2023/04/03 06:32:16;;;;;;;;;;;;;;;3.89;100.00;103029.69;5274984;28;20070;-69
2023/04/03 06:34:47;;;;;;;5.78;1.95;;;;;;;3.46;100.00;103024.56;5280276;28;20335;-69
2023/04/03 06:37:21;;;;;;;8.30;2.25;;;;;;;3.49;100.00;103034.88;5280114;28;20035;-68
2023/04/03 06:39:56;;;;;;;6.55;2.30;;;;;;;3.57;100.00;103042.50;5281755;28;20093;-68
2023/04/03 06:42:27;;;;;;;27.52;2.58;;;;;;;3.53;100.00;103033.94;5280086;28;20031;-69
2023/04/03 06:44:58;;;;;;;4.07;1.98;;;;;;;3.67;100.00;103033.63;5273980;28;20025;-68
2023/04/03 06:47:30;;;;;;;4.60;1.83;;;;;;;3.61;100.00;103033.78;5274654;28;20119;-69
2023/04/03 06:50:01;;;;;;;5.20;2.42;;;;;;;3.68;100.00;103039.69;5280384;28;20028;-69
2023/04/03 06:52:32;;;;;;;5.28;2.17;;;;;;;3.76;100.00;103043.81;5268515;28;20028;-68
2023/04/03 06:55:04;;;;;;;3.10;1.98;;;;;;;3.87;100.00;103044.47;5270325;28;20035;-69
2023/04/03 06:57:36;;;;;;;6.43;1.92;;;;;;;3.99;100.00;103045.06;5272880;28;20100;-69
2023/04/03 07:00:09;;;;;;;4.88;1.90;;;;;;;4.12;100.00;103047.34;5276678;28;20028;-69
2023/04/03 07:02:40;;;;;;;;;;;;;;;4.74;100.00;103058.91;5282947;28;20452;-68
2023/04/03 07:05:13;;;;;;;6.17;2.37;;;;;;;4.30;100.00;103040.91;5275115;28;19912;-69
2023/04/03 07:07:44;;;;;;;4.80;2.00;;;;;;;4.43;100.00;103057.03;5277400;28;20119;-69
2023/04/03 07:10:15;;;;;;;4.85;1.98;;;;;;;4.56;100.00;103053.25;5262477;28;20489;-69
2023/04/03 07:12:47;;;;;;;4.63;1.88;;;;;;;4.57;100.00;103046.31;5279635;28;20637;-69
2023/04/03 07:15:18;;;;;;;6.50;2.20;;;;;;;4.71;100.00;103041.66;5276665;28;20083;-69
2023/04/03 07:17:49;;;;;;;4.70;1.90;;;;;;;4.82;100.00;103049.19;5280550;28;20027;-68
2023/04/03 07:20:21;;;;;;;4.85;2.20;;;;;;;4.85;100.00;103051.69;5272855;28;20393;-68
2023/04/03 07:22:52;;;;;;;5.60;1.83;;;;;;;4.95;100.00;103054.91;5273491;28;20480;-69
2023/04/03 07:25:23;;;;;;;6.78;1.90;;;;;;;4.99;100.00;103054.78;5283348;28;20396;-68
2023/04/03 07:27:55;;;;;;;4.93;1.98;;;;;;;5.12;100.00;103061.38;5279997;28;20056;-69
2023/04/03 07:30:26;;;;;;;6.40;2.33;;;;;;;5.29;100.00;103060.06;5274574;28;20115;-69
2023/04/03 07:32:58;;;;;;;4.95;1.70;;;;;;;5.30;95.46;103065.22;5280077;28;20974;-68
2023/04/03 07:35:29;;;;;;;7.25;2.63;;;;;;;5.33;98.92;103067.72;5281547;28;20032;-69
2023/04/03 07:38:01;;;;;;;6.90;2.30;;;;;;;5.34;96.97;103068.56;5275779;28;20505;-68
2023/04/03 07:40:33;;;;;;;5.13;2.25;;;;;;;5.51;94.20;103078.53;5277099;28;20303;-69
2023/04/03 07:43:05;;;;;;;3.22;1.52;;;;;;;5.49;92.45;103075.97;5278796;28;20094;-69
2023/04/03 07:45:37;;;;;;;7.45;2.15;;;;;;;5.59;95.14;103073.97;5277670;28;20032;-68
2023/04/03 07:48:10;;;;;;;5.00;2.15;;;;;;;5.72;93.53;103077.94;5276533;28;20031;-68
2023/04/03 07:50:42;;;;;;;5.63;1.85;;;;;;;5.83;90.78;103077.59;5274762;28;20067;-69
2023/04/03 07:53:13;;;;;;;4.88;1.98;;;;;;;5.97;92.25;103072.03;5274646;28;20031;-68
2023/04/03 07:55:48;;;;;;;5.53;1.55;;;;;;;6.08;89.31;103082.97;5278294;28;20020;-68
2023/04/03 07:58:20;;;;;;;8.45;2.47;;;;;;;6.04;87.57;103079.59;5277540;28;20085;-68
2023/04/03 08:00:51;;;;;;;6.60;2.00;;;;;;;6.20;85.72;103077.38;5273824;28;20400;-68
2023/04/03 08:03:23;;;;;;;7.05;1.65;;;;;;;6.17;86.42;103058.41;5316935;22;20105;-69
2023/04/03 08:05:54;;;;;;;4.47;1.63;;;;;;;6.28;84.95;103070.19;5300635;28;20377;-71
2023/04/03 08:08:26;;;;;;;5.38;2.33;;;;;;;6.41;83.60;103070.69;5300301;28;20023;-71
2023/04/03 08:10:59;;;;;;;4.72;1.95;;;;;;;6.50;83.22;103078.19;5292101;28;20032;-71
2023/04/03 08:13:31;;;;;;;5.28;1.77;;;;;;;6.56;82.57;103071.94;5301099;28;20052;-71
2023/04/03 08:16:12;;;;;;;5.28;1.60;;;;;;;6.74;83.00;103080.88;5299916;28;20042;-71
2023/04/03 08:18:43;;;;;;;3.90;1.75;;;;;;;6.68;78.52;103074.13;5293344;28;20493;-71
2023/04/03 08:21:15;;;;;;;3.92;1.77;;;;;;;6.77;78.86;103079.03;5300083;28;20028;-71
2023/04/03 08:23:51;;;;;;;4.45;1.60;;;;;;;6.92;77.72;103079.44;5299115;28;20046;-71
2023/04/03 08:26:22;;;;;;;6.90;1.90;;;;;;;6.98;80.92;103074.88;5301634;28;20029;-71
2023/04/03 08:28:53;;;;;;;4.47;1.75;;;;;;;7.08;73.47;103075.41;5293593;28;21154;-71
2023/04/03 08:31:25;;;;;;;4.28;1.67;;;;;;;7.09;75.67;103071.06;5296889;28;20597;-71
2023/04/03 08:33:57;;;;;;;4.72;1.75;;;;;;;7.24;74.37;103084.41;5298136;28;20111;-71
2023/04/03 08:36:29;;;;;;;4.30;1.35;;;;;;;7.20;73.36;103088.03;5296201;28;20106;-71
2023/04/03 08:39:02;;;;;;;3.90;1.55;;;;;;;7.23;72.09;103076.63;5293524;28;20028;-72
2023/04/03 08:41:42;;;;;;;3.97;1.73;;;;;;;7.62;73.39;103091.78;5299067;28;20074;-71
2023/04/03 08:44:57;;;;;;;5.75;1.92;;;;;;;7.95;72.58;103087.88;5296780;28;20089;-72
2023/04/03 08:47:38;;;;;;;5.68;1.50;;;;;;;8.01;71.51;103086.81;5252160;28;20039;-71
2023/04/03 08:50:16;;;;;;;6.10;1.70;;;;;;;7.93;65.67;103091.50;5251325;28;20275;-72
2023/04/03 08:52:52;;;;;;;3.88;1.48;;;;;;;7.94;66.27;103098.41;5275231;28;20051;-72
2023/04/03 08:55:27;;;;;;;2.83;0.90;;;;;;;7.88;62.97;103091.66;5301463;28;20070;-72
2023/04/03 08:58:02;;;;;;;4.55;1.75;;;;;;;8.00;61.55;103091.19;5296718;28;20036;-72
2023/04/03 09:00:53;;;;;;;6.13;1.65;;;;;;;8.19;58.86;103093.09;5302515;28;20036;-72
2023/04/03 09:03:25;;;;;;;2.70;0.93;;;;;;;8.19;56.04;103093.09;5298597;28;20089;-72
2023/04/03 09:06:18;;;;;;;2.85;1.25;;;;;;;8.47;57.52;103079.84;5297482;28;20079;-72
2023/04/03 09:08:55;;;;;;;4.83;1.37;;;;;;;8.44;55.58;103088.63;5296835;28;20267;-72
2023/04/03 09:11:46;;;;;;;2.78;1.30;;;;;;;8.48;48.79;103092.81;5300636;28;20032;-72
2023/04/03 09:14:31;;;;;;;4.38;0.90;;;;;;;8.65;52.47;103091.31;5292565;28;20449;-72
2023/04/03 09:17:09;;;;;;;3.05;1.27;;;;;;;8.57;52.86;103086.41;5293016;28;20147;-72
2023/04/03 09:19:57;;;;;;;2.97;1.05;;;;;;;8.86;49.90;103086.94;5299243;28;20030;-72
2023/04/03 09:22:33;;;;;;;1.95;0.90;;;;;;;8.71;48.81;103089.31;5304721;28;20062;-72
2023/04/03 09:25:19;;;;;;;3.05;0.93;;;;;;;9.02;42.18;103095.88;5299560;28;21881;-72
2023/04/03 09:27:52;;;;;;;3.42;0.80;;;;;;;8.81;41.24;103100.22;5300330;28;20031;-72
2023/04/03 09:30:25;;;;;;;3.53;1.03;;;;;;;8.83;38.85;103097.56;5297598;28;20423;-72
2023/04/03 09:32:57;;;;;;;2.30;0.90;;;;;;;8.73;37.56;103100.53;5297597;28;20285;-72
2023/04/03 09:35:34;;;;;;;2.33;0.90;;;;;;;8.84;39.58;103088.78;5298794;28;20384;-72
2023/04/03 09:38:11;;;;;;;2.47;0.90;;;;;;;9.04;41.15;103093.19;5298118;28;20043;-72
2023/04/03 09:41:06;;;;;;;2.47;1.05;;;;;;;8.91;38.16;103091.09;5300345;28;20035;-72
2023/04/03 09:43:38;;;;;;;2.03;0.70;;;;;;;8.95;39.35;103091.81;5299635;28;20096;-72
2023/04/03 09:46:24;;;;;;;3.72;0.93;;;;;;;9.13;37.04;103085.81;5301900;28;20043;-72
2023/04/03 09:49:01;;;;;;;1.83;0.80;;;;;;;9.22;37.05;103068.84;5301835;28;20031;-70
2023/04/03 09:51:32;;;;;;;3.05;1.27;;;;;;;9.24;37.87;103067.00;5298030;28;20150;-72
2023/04/03 09:54:37;;;;;;;2.83;0.93;;;;;;;9.65;37.87;103077.41;5301919;28;20035;-72
2023/04/03 09:57:11;;;;;;;3.35;0.93;;;;;;;9.47;39.25;103061.63;5298438;28;20416;-72
2023/04/03 10:00:01;;;;;;;3.90;1.02;;;;;;;9.66;36.39;103066.88;5297436;28;20036;-72
2023/04/03 10:02:36;;;;;;;2.60;0.77;;;;;;;9.64;37.09;103058.25;5303893;28;20043;-72
2023/04/03 10:05:36;;;;;;;2.42;0.88;;;;;;;9.81;34.83;103067.97;5303201;28;20039;-72
2023/04/03 10:08:13;;;;;;;2.47;0.82;;;;;;;9.53;32.61;103063.13;5297907;28;20036;-72
2023/04/03 10:10:47;;;;;;;1.95;0.80;;;;;;;9.45;32.97;103055.59;5300535;28;20028;-72
2023/04/03 10:13:20;;;;;;;1.88;0.80;;;;;;;9.66;34.32;103058.16;5300353;28;20524;-72
2023/04/03 10:16:17;;;;;;;1.40;0.70;;;;;;;9.86;36.53;103057.28;5299629;28;20049;-72
2023/04/03 10:19:01;;;;;;;3.13;1.23;;;;;;;9.84;35.88;103057.31;5299021;28;20400;-72
2023/04/03 10:21:50;;;;;;;2.55;1.00;;;;;;;9.84;34.66;103057.31;5309529;28;20089;-72
2023/04/03 10:24:36;;;;;;;2.08;0.82;;;;;;;9.84;32.88;103056.47;5302207;28;20023;-73
2023/04/03 10:27:33;;;;;;;3.80;1.20;;;;;;;9.97;33.93;103050.59;5300098;28;20357;-72
2023/04/03 10:30:18;;;;;;;1.95;0.80;;;;;;;10.02;33.78;103044.31;5294300;28;20027;-72
2023/04/03 10:33:01;;;;;;;2.70;0.82;;;;;;;9.93;34.70;103043.81;5297280;28;20059;-72
2023/04/03 10:35:32;;;;;;;2.42;0.77;;;;;;;9.93;32.69;103041.19;5292899;28;20045;-72
2023/04/03 10:38:39;;;;;;;1.80;0.90;;;;;;;10.37;35.17;103030.38;5298201;28;20028;-72
2023/04/03 10:41:39;;;;;;;3.35;0.73;;;;;;;10.14;34.57;103023.59;5225490;28;20048;-71
2023/04/03 10:44:46;;;;;;;1.95;0.65;;;;;;;10.47;33.40;103022.94;5300325;28;20491;-71
2023/04/03 10:47:25;;;;;;;2.70;0.68;;;;;;;10.27;33.57;103012.59;5300589;28;20032;-71
2023/04/03 10:50:22;;;;;;;1.70;0.70;;;;;;;10.39;34.73;103018.06;5292607;28;20024;-71
2023/04/03 10:53:34;;;;;;;2.58;0.77;;;;;;;10.42;32.08;103017.91;5291903;28;20075;-71
2023/04/03 10:56:18;;;;;;;2.63;0.68;;;;;;;10.36;31.56;103010.34;5301217;28;20039;-71
2023/04/03 10:58:57;;;;;;;2.10;0.65;;;;;;;10.43;32.92;103009.13;5301832;28;20032;-71
2023/04/03 11:01:36;;;;;;;4.00;0.70;;;;;;;10.29;32.10;103010.72;5272106;28;20097;-71
2023/04/03 11:04:10;;;;;;;2.00;0.75;;;;;;;10.30;31.39;103013.25;5282795;28;20028;-71
2023/04/03 11:06:48;;;;;;;2.67;0.60;;;;;;;10.37;31.65;103013.81;5295608;28;20070;-71
2023/04/03 11:09:37;;;;;;;2.58;0.90;;;;;;;10.58;31.46;103006.66;5297103;28;20530;-71
2023/04/03 11:12:14;;;;;;;2.80;0.80;;;;;;;10.53;31.52;102992.94;5281535;28;20027;-71
2023/04/03 11:14:48;;;;;;;2.40;0.80;;;;;;;10.41;31.51;103005.72;5294241;28;20032;-71
2023/04/03 11:17:21;;;;;;;1.50;0.50;;;;;;;10.64;33.17;103004.56;5297639;28;20032;-71
2023/04/03 11:20:00;;;;;;;2.05;0.68;;;;;;;10.90;31.87;103002.38;5299864;28;20144;-71
2023/04/03 11:22:37;;;;;;;2.47;0.88;;;;;;;10.79;31.87;102992.44;5290542;28;20051;-71
2023/04/03 11:25:08;;;;;;;1.90;0.60;;;;;;;10.92;31.05;102992.69;5302194;28;20232;-71
2023/04/03 11:28:01;;;;;;;1.50;0.70;;;;;;;11.01;32.02;103001.84;5297536;28;20573;-71
2023/04/03 11:31:06;;;;;;;1.98;0.70;;;;;;;11.15;30.73;102981.81;5300752;28;20504;-72
2023/04/03 11:34:18;;;;;;;2.40;0.70;;;;;;;11.20;31.82;102977.16;5281599;28;20040;-73
2023/04/03 11:36:56;;;;;;;1.80;0.70;;;;;;;11.23;31.14;102968.28;5282596;28;20468;-73
2023/04/03 11:39:33;;;;;;;2.67;0.70;;;;;;;11.24;30.01;102969.13;5281725;28;20483;-73
2023/04/03 11:42:24;;;;;;;1.30;0.70;;;;;;;11.39;29.79;102968.31;5292580;28;20064;-73
2023/04/03 11:45:46;;;;;;;1.40;0.68;;;;;;;11.74;28.41;102968.97;5294934;28;20397;-72
2023/04/03 11:48:17;;;;;;;1.88;0.70;;;;;;;11.31;29.96;102968.72;5225932;28;20068;-73
2023/04/03 11:50:48;;;;;;;2.47;0.87;;;;;;;11.35;29.37;102965.00;5264846;28;20048;-71
2023/04/03 11:53:35;;;;;;;1.50;0.70;;;;;;;11.33;27.09;102979.16;5293437;28;20273;-71
2023/04/03 11:56:27;;;;;;;1.20;0.70;;;;;;;11.34;28.79;102952.81;5291355;28;20023;-71
2023/04/03 11:59:23;;;;;;;1.88;0.70;;;;;;;11.49;28.04;102964.25;5292643;28;20072;-71
2023/04/03 12:01:57;;;;;;;2.25;0.70;;;;;;;11.47;28.83;102957.41;5288925;28;20078;-71
2023/04/03 12:04:30;;;;;;;2.15;0.60;;;;;;;11.42;27.80;102953.25;5291922;28;20215;-71